Time;durP1;ratioP1;P1;durP2;ratioP2;P2;SDS_P1;SDS_P2;PMS_P1;PMS_P2;Temp;Humidity;BMP_temperature;BMP_pressure;BME280_temperature;BME280_humidity;BME280_pressure;Samples;Min_cycle;Max_cycle;Signal;HPM_P1;HPM_P2
2021/05/28 00:02:12;;;;;;;9.68;5.68;;;10.50;84.30;;;;;;5074304;28;20017;-81
2021/05/28 00:04:38;;;;;;;11.73;6.07;;;10.40;85.20;;;;;;5073767;28;20037;-80
2021/05/28 00:07:04;;;;;;;10.57;6.57;;;10.20;86.50;;;;;;5061407;28;20021;-81
2021/05/28 00:09:33;;;;;;;13.10;6.63;;;10.20;85.90;;;;;;5054611;28;20071;-81
2021/05/28 00:11:59;;;;;;;9.57;5.88;;;10.10;88.80;;;;;;5064306;28;20378;-80
2021/05/28 00:14:24;;;;;;;11.68;7.22;;;10.10;88.90;;;;;;5074015;28;20024;-80
2021/05/28 00:16:50;;;;;;;11.02;7.85;;;10.00;90.00;;;;;;5075443;28;20016;-81
2021/05/28 00:19:16;;;;;;;12.68;7.75;;;10.00;91.30;;;;;;5074039;28;20033;-81
2021/05/28 00:21:41;;;;;;;14.60;8.25;;;9.90;92.40;;;;;;5071524;28;20029;-81
2021/05/28 00:24:08;;;;;;;10.90;7.43;;;10.00;92.80;;;;;;5053997;28;20045;-81
2021/05/28 00:26:34;;;;;;;8.93;6.50;;;9.80;93.70;;;;;;5053893;28;20386;-80
2021/05/28 00:28:59;;;;;;;10.73;7.78;;;9.90;93.90;;;;;;5055064;28;20100;-81
2021/05/28 00:31:25;;;;;;;13.95;8.05;;;9.90;93.90;;;;;;5053886;28;20094;-81
2021/05/28 00:33:50;;;;;;;10.38;8.20;;;9.80;94.30;;;;;;5054909;28;20029;-81
2021/05/28 00:36:18;;;;;;;12.13;7.10;;;9.80;95.30;;;;;;5073315;28;20103;-81
2021/05/28 00:38:44;;;;;;;13.38;8.27;;;9.70;95.70;;;;;;5072304;28;20036;-80
2021/05/28 00:41:10;;;;;;;12.77;7.63;;;9.70;96.30;;;;;;5073621;28;20031;-80
2021/05/28 00:43:36;;;;;;;13.63;8.63;;;9.60;97.40;;;;;;5073493;28;20035;-80
2021/05/28 00:46:02;;;;;;;13.13;9.13;;;9.50;98.90;;;;;;5073566;28;20088;-80
2021/05/28 00:48:28;;;;;;;13.88;8.60;;;9.50;99.90;;;;;;5073342;28;20052;-81
2021/05/28 00:50:53;;;;;;;16.60;8.65;;;9.50;99.90;;;;;;5063441;28;20059;-81
2021/05/28 00:53:21;;;;;;;18.55;9.05;;;9.50;99.90;;;;;;5054636;28;20029;-81
2021/05/28 00:55:47;;;;;;;19.02;10.07;;;9.50;99.90;;;;;;5060866;28;20103;-81
2021/05/28 00:58:12;;;;;;;14.07;8.93;;;9.50;99.90;;;;;;5073286;28;20113;-81
2021/05/28 01:00:38;;;;;;;19.38;9.05;;;9.50;99.90;;;;;;5074516;28;20477;-81
2021/05/28 01:03:04;;;;;;;14.80;9.10;;;9.50;99.90;;;;;;5074383;28;20410;-81
2021/05/28 01:05:30;;;;;;;18.70;10.38;;;9.50;99.90;;;;;;5062752;28;20088;-81
2021/05/28 01:07:56;;;;;;;16.00;9.20;;;9.50;99.90;;;;;;5057646;28;20379;-81
2021/05/28 01:10:21;;;;;;;17.05;9.55;;;9.50;99.90;;;;;;5057666;28;20029;-81
2021/05/28 01:12:47;;;;;;;18.40;10.25;;;9.50;99.90;;;;;;5054192;28;20035;-81
2021/05/28 01:15:13;;;;;;;21.63;10.20;;;9.50;99.90;;;;;;5053016;28;20505;-81
2021/05/28 01:17:40;;;;;;;15.88;9.63;;;9.50;99.90;;;;;;5052827;28;20029;-80
2021/05/28 01:20:08;;;;;;;16.35;8.77;;;9.50;99.90;;;;;;5054117;28;20024;-80
2021/05/28 01:22:34;;;;;;;14.10;8.82;;;9.60;98.20;;;;;;5052788;28;20558;-80
2021/05/28 01:25:00;;;;;;;18.13;9.80;;;9.50;99.90;;;;;;5064757;28;20113;-80
2021/05/28 01:27:29;;;;;;;17.25;9.70;;;9.60;98.40;;;;;;5072641;28;20024;-80
2021/05/28 01:29:55;;;;;;;16.55;9.57;;;9.60;99.90;;;;;;5072687;28;20016;-80
2021/05/28 01:32:21;;;;;;;18.75;9.50;;;9.60;99.90;;;;;;5072585;28;20118;-80
2021/05/28 01:34:47;;;;;;;16.80;9.60;;;9.60;99.70;;;;;;5067695;28;20073;-81
2021/05/28 01:37:13;;;;;;;16.92;9.43;;;9.60;99.20;;;;;;5071882;28;20021;-81
2021/05/28 01:39:50;;;;;;;14.35;9.82;;;9.60;99.70;;;;;;5071672;28;20170;-81
2021/05/28 01:42:16;;;;;;;16.40;9.35;;;9.60;98.80;;;;;;5072408;28;20013;-81
2021/05/28 01:44:43;;;;;;;14.27;8.45;;;9.60;99.20;;;;;;5073518;28;20051;-80
2021/05/28 01:47:09;;;;;;;18.95;10.10;;;9.60;98.50;;;;;;5072311;28;20024;-80
2021/05/28 01:49:39;;;;;;;18.20;9.98;;;9.60;99.90;;;;;;5072189;28;20025;-80
2021/05/28 01:52:06;;;;;;;13.23;9.07;;;9.60;98.50;;;;;;5071118;28;20074;-80
2021/05/28 01:54:34;;;;;;;17.75;9.13;;;9.60;97.70;;;;;;5077789;28;20016;-81
2021/05/28 01:57:02;;;;;;;18.02;8.75;;;9.60;97.00;;;;;;5093706;28;20103;-80
2021/05/28 01:59:28;;;;;;;15.50;8.32;;;9.60;97.90;;;;;;5093509;28;20440;-80
2021/05/28 02:01:54;;;;;;;15.27;8.50;;;9.60;97.50;;;;;;5054030;28;20120;-81
2021/05/28 02:04:20;;;;;;;15.25;9.38;;;9.60;97.20;;;;;;5053120;28;20028;-81
2021/05/28 02:06:46;;;;;;;14.80;8.63;;;9.50;99.90;;;;;;5053258;28;20040;-81
2021/05/28 02:09:12;;;;;;;14.07;8.45;;;9.50;99.90;;;;;;5052418;28;20029;-81
2021/05/28 02:11:38;;;;;;;13.82;9.13;;;9.50;99.90;;;;;;5071952;28;20078;-81
2021/05/28 02:14:05;;;;;;;12.90;8.35;;;9.40;99.90;;;;;;5073156;28;20025;-81
2021/05/28 02:16:31;;;;;;;15.50;8.20;;;9.40;99.90;;;;;;5084824;28;20019;-81
2021/05/28 02:18:57;;;;;;;12.98;8.68;;;9.30;99.90;;;;;;5093200;28;20468;-81
2021/05/28 02:21:23;;;;;;;16.35;9.68;;;9.20;99.90;;;;;;5092047;28;20028;-80
2021/05/28 02:23:49;;;;;;;14.23;8.88;;;9.10;99.90;;;;;;5075651;28;20481;-80
2021/05/28 02:26:15;;;;;;;17.13;9.63;;;9.10;99.90;;;;;;5073031;28;20489;-80
2021/05/28 02:28:40;;;;;;;14.15;8.80;;;9.00;99.90;;;;;;5071648;28;20013;-80
2021/05/28 02:31:06;;;;;;;15.65;8.40;;;8.90;99.90;;;;;;5073043;28;20024;-80
2021/05/28 02:33:31;;;;;;;18.77;9.48;;;8.90;99.90;;;;;;5071547;28;20063;-80
2021/05/28 02:35:59;;;;;;;15.07;9.15;;;8.90;99.90;;;;;;5068166;28;20033;-80
2021/05/28 02:38:24;;;;;;;16.60;9.68;;;8.80;99.90;;;;;;5070711;28;20028;-81
2021/05/28 02:40:50;;;;;;;18.65;10.20;;;8.80;99.90;;;;;;5055803;28;20075;-80
2021/05/28 02:43:15;;;;;;;17.30;9.43;;;8.90;99.90;;;;;;5051465;28;20033;-80
2021/05/28 02:45:41;;;;;;;18.08;9.73;;;8.90;99.90;;;;;;5052627;28;20450;-80
2021/05/28 02:48:07;;;;;;;15.48;10.35;;;8.90;99.90;;;;;;5051455;28;20057;-80
2021/05/28 02:50:33;;;;;;;15.00;9.48;;;8.90;99.90;;;;;;5053732;28;20120;-80
2021/05/28 02:53:00;;;;;;;15.38;9.73;;;8.90;99.90;;;;;;5051394;28;20036;-80
2021/05/28 02:55:27;;;;;;;15.25;10.27;;;8.90;99.90;;;;;;5055247;28;20494;-80
2021/05/28 02:57:53;;;;;;;18.75;10.40;;;8.90;99.90;;;;;;5072676;28;20021;-81
2021/05/28 03:00:21;;;;;;;16.38;12.15;;;8.90;99.90;;;;;;5072739;28;20479;-79
2021/05/28 03:02:47;;;;;;;17.33;10.57;;;8.90;99.90;;;;;;5071254;28;20021;-80
2021/05/28 03:05:14;;;;;;;17.17;10.40;;;8.90;99.90;;;;;;5072375;28;20086;-80
2021/05/28 03:07:40;;;;;;;19.70;11.60;;;8.90;99.90;;;;;;5072599;28;20040;-81
2021/05/28 03:10:06;;;;;;;13.68;10.30;;;8.90;99.90;;;;;;5071013;28;20107;-80
2021/05/28 03:12:32;;;;;;;12.13;9.27;;;8.90;99.90;;;;;;5072222;28;20024;-80
2021/05/28 03:14:58;;;;;;;16.73;10.80;;;9.00;99.90;;;;;;5072513;28;20078;-80
2021/05/28 03:17:24;;;;;;;16.13;10.55;;;8.90;99.90;;;;;;5071155;28;20428;-80
2021/05/28 03:19:50;;;;;;;13.57;9.05;;;9.00;99.90;;;;;;5060129;28;20526;-80
2021/05/28 03:22:35;;;;;;;15.82;10.05;;;9.00;99.90;;;;;;5051089;28;20029;-80
2021/05/28 03:25:07;;;;;;;14.60;9.50;;;9.00;99.90;;;;;;5051107;28;20550;-80
2021/05/28 03:27:33;;;;;;;16.95;10.15;;;8.90;99.90;;;;;;5050947;28;20466;-80
2021/05/28 03:29:59;;;;;;;14.85;10.15;;;8.90;99.90;;;;;;5051054;28;20542;-80
2021/05/28 03:32:25;;;;;;;17.63;9.77;;;8.90;99.90;;;;;;5051084;28;20104;-80
2021/05/28 03:34:53;;;;;;;13.55;9.30;;;8.90;99.90;;;;;;5051140;28;20467;-80
2021/05/28 03:37:19;;;;;;;18.70;10.60;;;8.90;99.90;;;;;;5056983;28;20052;-80
2021/05/28 03:39:46;;;;;;;17.73;10.27;;;8.90;99.90;;;;;;5054134;28;20047;-80
2021/05/28 03:42:12;;;;;;;15.57;10.20;;;8.90;99.90;;;;;;5072198;28;20496;-80
2021/05/28 03:44:37;;;;;;;20.65;9.82;;;8.90;99.90;;;;;;5071814;28;20127;-80
2021/05/28 03:47:03;;;;;;;17.42;9.48;;;8.90;99.90;;;;;;5072095;28;20025;-80
2021/05/28 03:49:29;;;;;;;14.20;10.23;;;8.90;99.90;;;;;;5070012;28;20086;-80
2021/05/28 03:51:54;;;;;;;14.35;9.90;;;8.90;99.90;;;;;;5075727;28;20025;-80
2021/05/28 03:54:20;;;;;;;14.18;9.68;;;8.80;99.90;;;;;;5075816;28;20031;-80
2021/05/28 03:56:47;;;;;;;14.57;10.05;;;8.70;99.90;;;;;;5075793;28;20060;-80
2021/05/28 03:59:12;;;;;;;13.73;9.35;;;8.70;99.90;;;;;;5074235;28;20482;-80
2021/05/28 04:01:38;;;;;;;12.82;9.70;;;8.60;99.90;;;;;;5058659;28;20120;-80
2021/05/28 04:04:04;;;;;;;14.70;9.68;;;8.60;99.90;;;;;;5054180;28;20123;-80
2021/05/28 04:06:30;;;;;;;17.13;10.90;;;8.60;99.90;;;;;;5055981;28;20021;-80
2021/05/28 04:08:56;;;;;;;25.67;14.05;;;8.60;99.90;;;;;;5054104;28;20021;-80
2021/05/28 04:11:21;;;;;;;30.23;17.90;;;8.60;99.90;;;;;;5055521;28;20036;-80
2021/05/28 04:13:47;;;;;;;22.60;14.27;;;8.60;99.90;;;;;;5055185;28;20498;-80
2021/05/28 04:16:13;;;;;;;21.30;12.88;;;8.60;99.90;;;;;;5055332;28;20048;-80
2021/05/28 04:18:38;;;;;;;21.23;12.32;;;8.80;99.90;;;;;;5055509;28;20025;-80
2021/05/28 04:21:04;;;;;;;22.63;12.82;;;8.90;99.90;;;;;;5075325;28;20024;-80
2021/05/28 04:23:30;;;;;;;23.33;11.70;;;9.00;99.90;;;;;;5075102;28;20099;-80
2021/05/28 04:25:55;;;;;;;25.50;11.63;;;9.00;99.90;;;;;;5073597;28;20048;-80
2021/05/28 04:28:22;;;;;;;21.02;12.65;;;9.10;99.90;;;;;;5073904;28;20024;-80
2021/05/28 04:30:47;;;;;;;19.60;11.80;;;9.20;99.90;;;;;;5075129;28;20020;-81
2021/05/28 04:33:13;;;;;;;20.17;12.20;;;9.20;99.90;;;;;;5073795;28;20013;-80
2021/05/28 04:35:39;;;;;;;19.95;11.93;;;9.20;99.90;;;;;;5072035;28;20039;-80
2021/05/28 04:38:04;;;;;;;16.13;11.68;;;9.20;99.90;;;;;;5074869;28;20032;-80
2021/05/28 04:40:31;;;;;;;25.10;12.85;;;9.20;99.90;;;;;;5073252;28;20115;-80
2021/05/28 04:42:57;;;;;;;16.80;10.38;;;9.30;99.90;;;;;;5073519;28;20462;-80
2021/05/28 04:45:24;;;;;;;15.70;11.02;;;9.40;99.90;;;;;;5074786;28;20510;-80
2021/05/28 04:47:49;;;;;;;39.38;20.35;;;9.50;99.90;;;;;;5073031;28;20107;-80
2021/05/28 04:50:15;;;;;;;27.63;17.00;;;9.70;99.90;;;;;;5062157;28;20464;-81
2021/05/28 04:52:42;;;;;;;32.28;18.50;;;9.80;99.90;;;;;;5073282;28;20107;-81
2021/05/28 04:55:09;;;;;;;16.52;10.68;;;10.00;99.90;;;;;;5071997;28;20016;-81
2021/05/28 04:57:35;;;;;;;8.57;7.47;;;10.10;99.90;;;;;;5053187;28;20116;-81
2021/05/28 05:00:02;;;;;;;7.63;6.30;;;10.40;99.90;;;;;;5053670;28;20048;-81
2021/05/28 05:02:28;;;;;;;7.47;5.68;;;10.50;99.40;;;;;;5054384;28;20029;-80
2021/05/28 05:04:54;;;;;;;9.20;5.80;;;10.60;95.20;;;;;;5053047;28;20394;-79
2021/05/28 05:07:19;;;;;;;7.18;5.45;;;10.70;95.80;;;;;;5054329;28;20056;-80
2021/05/28 05:09:45;;;;;;;6.30;5.18;;;10.90;96.10;;;;;;5052970;28;20102;-80
2021/05/28 05:12:11;;;;;;;5.75;4.68;;;10.80;93.90;;;;;;5053064;28;20068;-80
2021/05/28 05:14:36;;;;;;;4.95;3.88;;;10.90;90.70;;;;;;5052938;28;20085;-80
2021/05/28 05:17:02;;;;;;;6.88;3.95;;;11.00;90.60;;;;;;5053995;28;20052;-80
2021/05/28 05:19:27;;;;;;;6.15;4.18;;;11.20;91.50;;;;;;5057396;28;20505;-80
2021/05/28 05:21:53;;;;;;;4.32;3.45;;;11.30;90.50;;;;;;5052855;28;20071;-80
2021/05/28 05:24:19;;;;;;;4.78;3.97;;;11.40;88.30;;;;;;5054010;28;20032;-81
2021/05/28 05:26:45;;;;;;;4.07;3.67;;;11.60;89.60;;;;;;5054150;28;20360;-81
2021/05/28 05:29:11;;;;;;;4.85;3.65;;;11.60;87.50;;;;;;5064970;28;20056;-81
2021/05/28 05:31:39;;;;;;;4.85;3.88;;;11.70;85.60;;;;;;5052719;28;20033;-80
2021/05/28 05:34:06;;;;;;;4.47;3.65;;;11.80;83.40;;;;;;5053918;28;20017;-80
2021/05/28 05:36:33;;;;;;;4.60;4.00;;;11.90;84.40;;;;;;5053822;28;20049;-79
2021/05/28 05:38:59;;;;;;;5.18;4.45;;;12.00;84.70;;;;;;5052380;28;20032;-80
2021/05/28 05:41:26;;;;;;;4.85;3.75;;;12.00;81.20;;;;;;5053713;28;20390;-80
2021/05/28 05:43:52;;;;;;;4.45;2.97;;;12.10;81.70;;;;;;5053526;28;20406;-79
2021/05/28 05:46:17;;;;;;;3.88;2.90;;;12.10;83.20;;;;;;5052409;28;20029;-79
2021/05/28 05:48:43;;;;;;;6.25;3.20;;;11.90;80.00;;;;;;5052043;28;20017;-79
2021/05/28 05:51:09;;;;;;;3.60;3.28;;;12.10;82.00;;;;;;5063085;28;20016;-81
2021/05/28 05:53:35;;;;;;;3.50;2.88;;;12.10;82.90;;;;;;5072085;28;20389;-80
2021/05/28 05:56:01;;;;;;;3.20;2.90;;;12.10;81.20;;;;;;5072161;28;20098;-80
2021/05/28 05:58:26;;;;;;;3.38;2.75;;;12.30;83.80;;;;;;5073241;28;20037;-80
2021/05/28 06:00:52;;;;;;;4.18;2.40;;;12.20;78.00;;;;;;5056589;28;20100;-80
2021/05/28 06:03:17;;;;;;;3.03;2.40;;;12.40;78.00;;;;;;5057872;28;20145;-80
2021/05/28 06:05:44;;;;;;;3.17;2.45;;;12.40;76.80;;;;;;5059206;28;20111;-80
2021/05/28 06:08:10;;;;;;;2.85;2.35;;;12.60;76.90;;;;;;5058566;28;20156;-80
2021/05/28 06:10:35;;;;;;;2.25;2.05;;;12.80;77.60;;;;;;5055710;28;20140;-80
2021/05/28 06:13:08;;;;;;;3.28;2.65;;;12.90;75.80;;;;;;5057680;28;20028;-80
2021/05/28 06:15:35;;;;;;;;;;;13.00;75.20;;;;;;5066397;28;20151;-80
2021/05/28 06:18:01;;;;;;;4.07;2.67;;;13.10;73.30;;;;;;5063723;28;20380;-80
2021/05/28 06:20:27;;;;;;;2.30;2.10;;;13.00;73.70;;;;;;5060306;28;20040;-80
2021/05/28 06:22:53;;;;;;;3.47;2.15;;;13.00;72.70;;;;;;5060793;28;20052;-80
2021/05/28 06:25:18;;;;;;;2.67;2.42;;;12.90;72.80;;;;;;5063511;28;20125;-80
2021/05/28 06:27:44;;;;;;;4.57;2.72;;;12.90;71.80;;;;;;5060468;28;20484;-81
2021/05/28 06:30:11;;;;;;;2.83;2.58;;;12.90;72.60;;;;;;5061274;28;20020;-80
2021/05/28 06:32:37;;;;;;;3.42;2.42;;;13.00;71.80;;;;;;5063344;28;20052;-80
2021/05/28 06:35:04;;;;;;;3.00;2.13;;;13.10;70.80;;;;;;5061257;28;20052;-79
2021/05/28 06:37:30;;;;;;;2.50;2.30;;;13.10;70.90;;;;;;5059793;28;20024;-80
2021/05/28 06:39:55;;;;;;;4.10;2.20;;;13.20;71.20;;;;;;5060238;28;20013;-81
2021/05/28 06:42:21;;;;;;;2.83;2.20;;;13.60;71.20;;;;;;5061206;28;20382;-81
2021/05/28 06:44:47;;;;;;;1.95;1.85;;;13.50;68.90;;;;;;5059103;28;20485;-81
2021/05/28 06:47:16;;;;;;;2.35;2.15;;;13.40;69.00;;;;;;5062579;28;20020;-81
2021/05/28 06:49:41;;;;;;;7.53;5.95;;;13.60;69.50;;;;;;5067922;28;20379;-81
2021/05/28 06:52:07;;;;;;;4.43;3.83;;;13.70;68.60;;;;;;5062468;28;20032;-81
2021/05/28 06:54:33;;;;;;;2.30;2.20;;;13.80;67.60;;;;;;5068474;28;20059;-81
2021/05/28 06:56:59;;;;;;;3.53;3.22;;;14.00;68.00;;;;;;5068839;28;20024;-79
2021/05/28 06:59:25;;;;;;;4.68;2.85;;;14.20;69.20;;;;;;5069276;28;20553;-80
2021/05/28 07:01:51;;;;;;;2.75;2.55;;;14.10;68.90;;;;;;5066747;28;20059;-81
2021/05/28 07:04:16;;;;;;;1.95;1.83;;;13.90;67.20;;;;;;5068486;28;20127;-80
2021/05/28 07:06:42;;;;;;;2.83;1.70;;;13.90;68.50;;;;;;5065119;28;20025;-82
2021/05/28 07:09:08;;;;;;;5.70;4.03;;;14.20;68.10;;;;;;5064129;28;20493;-81
2021/05/28 07:11:33;;;;;;;2.60;2.40;;;14.20;65.70;;;;;;5063833;28;20021;-81
2021/05/28 07:13:59;;;;;;;2.67;2.47;;;14.30;64.70;;;;;;5066499;28;20039;-81
2021/05/28 07:16:28;;;;;;;2.40;2.20;;;14.50;64.60;;;;;;5066646;28;20069;-81
2021/05/28 07:18:55;;;;;;;3.13;2.15;;;14.50;62.10;;;;;;5064026;28;20486;-81
2021/05/28 07:21:23;;;;;;;2.90;2.40;;;14.80;62.90;;;;;;5066334;28;20100;-82
2021/05/28 07:23:49;;;;;;;2.72;2.53;;;14.40;62.60;;;;;;5067522;28;20547;-82
2021/05/28 07:26:14;;;;;;;1.90;1.80;;;14.50;63.50;;;;;;5068956;28;20394;-81
2021/05/28 07:28:41;;;;;;;2.15;2.05;;;14.80;66.20;;;;;;5069521;28;20040;-81
2021/05/28 07:31:07;;;;;;;2.63;2.00;;;15.10;64.20;;;;;;5068258;28;20040;-80
2021/05/28 07:33:33;;;;;;;2.58;2.33;;;15.00;63.00;;;;;;5070043;28;20023;-81
2021/05/28 07:35:59;;;;;;;3.25;2.92;;;14.80;63.00;;;;;;5069255;28;20086;-83
2021/05/28 07:38:24;;;;;;;6.05;5.57;;;14.70;63.10;;;;;;5067859;28;20036;-81
2021/05/28 07:40:50;;;;;;;3.78;3.47;;;14.80;62.20;;;;;;5066665;28;20039;-81
2021/05/28 07:43:16;;;;;;;2.75;2.10;;;15.40;63.20;;;;;;5068808;28;20020;-81
2021/05/28 07:45:41;;;;;;;2.58;2.13;;;15.10;61.60;;;;;;5070731;28;20088;-81
2021/05/28 07:48:07;;;;;;;2.28;2.03;;;14.90;62.70;;;;;;5070274;28;20470;-81
2021/05/28 07:50:45;;;;;;;1.70;1.60;;;15.00;63.00;;;;;;5069907;28;20417;-81
2021/05/28 07:53:13;;;;;;;1.90;1.80;;;15.20;63.40;;;;;;5070209;28;20040;-81
2021/05/28 07:55:39;;;;;;;2.22;2.10;;;15.40;62.10;;;;;;5067429;28;20153;-82
2021/05/28 07:58:05;;;;;;;1.90;1.70;;;15.50;59.50;;;;;;5065897;28;20020;-80
2021/05/28 08:00:31;;;;;;;2.25;2.05;;;15.50;59.70;;;;;;5062262;28;20497;-82
2021/05/28 08:02:57;;;;;;;16.35;11.10;;;15.80;59.80;;;;;;5068503;28;20016;-82
2021/05/28 08:05:23;;;;;;;15.05;11.05;;;15.80;60.00;;;;;;5068419;28;20165;-81
2021/05/28 08:07:48;;;;;;;4.80;3.58;;;16.00;60.20;;;;;;5069605;28;20425;-82
2021/05/28 08:10:14;;;;;;;61.20;37.83;;;16.00;60.70;;;;;;5068447;28;20086;-81
2021/05/28 08:12:40;;;;;;;31.75;17.98;;;15.80;60.20;;;;;;5067028;28;20059;-82
2021/05/28 08:15:07;;;;;;;2.85;2.35;;;15.80;59.50;;;;;;5069979;28;20474;-82
2021/05/28 08:17:32;;;;;;;22.42;11.98;;;15.90;58.40;;;;;;5068470;28;20013;-83
2021/05/28 08:19:58;;;;;;;4.25;3.03;;;15.60;58.20;;;;;;5067569;28;20111;-79
2021/05/28 08:22:24;;;;;;;12.13;8.15;;;15.30;58.50;;;;;;5065974;28;20033;-80
2021/05/28 08:24:49;;;;;;;3.47;2.40;;;14.90;59.70;;;;;;5067322;28;20733;-81
2021/05/28 08:27:17;;;;;;;19.98;13.80;;;14.80;58.60;;;;;;5066510;28;20031;-81
2021/05/28 08:29:43;;;;;;;14.35;8.50;;;15.10;59.20;;;;;;5069217;28;20036;-81
2021/05/28 08:32:09;;;;;;;7.40;4.97;;;15.70;59.60;;;;;;5068747;28;20454;-79
2021/05/28 08:34:34;;;;;;;2.00;1.80;;;15.30;58.20;;;;;;5065366;28;20071;-80
2021/05/28 08:37:00;;;;;;;3.00;2.13;;;15.00;59.60;;;;;;5064977;28;20440;-81
2021/05/28 08:39:26;;;;;;;6.63;4.15;;;14.90;59.80;;;;;;5071038;28;20041;-82
2021/05/28 08:41:53;;;;;;;9.48;5.82;;;14.60;59.00;;;;;;5067497;28;20013;-79
2021/05/28 08:44:25;;;;;;;6.35;2.90;;;14.60;59.80;;;;;;5067908;28;20050;-79
2021/05/28 08:46:54;;;;;;;8.15;5.72;;;14.90;60.70;;;;;;5066925;28;20024;-80
2021/05/28 08:49:21;;;;;;;1.83;1.73;;;15.20;58.80;;;;;;5047981;28;20115;-80
2021/05/28 08:51:47;;;;;;;1.40;1.30;;;15.80;57.30;;;;;;5068948;28;20025;-80
2021/05/28 08:54:13;;;;;;;1.83;1.73;;;16.10;55.20;;;;;;5066123;28;20124;-79
2021/05/28 08:56:39;;;;;;;1.92;1.83;;;15.90;55.10;;;;;;5068249;28;20104;-79
2021/05/28 08:59:06;;;;;;;1.60;1.50;;;15.80;56.70;;;;;;5063865;28;20047;-79
2021/05/28 09:01:33;;;;;;;4.22;2.17;;;15.70;58.40;;;;;;5062425;28;20386;-81
2021/05/28 09:04:02;;;;;;;1.80;1.70;;;15.30;56.80;;;;;;5066102;28;20040;-80
2021/05/28 09:06:40;;;;;;;1.60;1.50;;;15.30;57.10;;;;;;5067284;28;20056;-80
2021/05/28 09:09:24;;;;;;;1.25;1.20;;;15.60;55.90;;;;;;5059415;28;20040;-82
2021/05/28 09:11:57;;;;;;;1.30;1.30;;;15.70;55.50;;;;;;5064540;28;20028;-81
2021/05/28 09:14:38;;;;;;;1.60;1.50;;;15.70;56.70;;;;;;5067198;28;20080;-79
2021/05/28 09:17:07;;;;;;;1.80;1.70;;;15.60;56.70;;;;;;5066192;28;20051;-81
2021/05/28 09:19:34;;;;;;;1.95;1.85;;;15.40;58.10;;;;;;5066610;28;20048;-82
2021/05/28 09:22:02;;;;;;;2.13;2.03;;;14.90;59.50;;;;;;5068233;28;20351;-81
2021/05/28 09:24:39;;;;;;;3.22;2.28;;;14.80;60.80;;;;;;5062579;28;20048;-80
2021/05/28 09:27:27;;;;;;;1.88;1.75;;;14.50;61.50;;;;;;5067396;28;20140;-80
2021/05/28 09:30:12;;;;;;;1.88;1.75;;;14.40;62.50;;;;;;5068925;28;20109;-80
2021/05/28 09:32:49;;;;;;;2.30;2.10;;;14.10;62.60;;;;;;5066528;28;20024;-81
2021/05/28 09:35:18;;;;;;;4.13;2.50;;;14.00;63.40;;;;;;5064933;28;20025;-80
2021/05/28 09:37:48;;;;;;;2.20;2.10;;;14.10;65.00;;;;;;5067496;28;20096;-82
2021/05/28 09:40:28;;;;;;;3.95;2.90;;;14.10;65.20;;;;;;5067496;28;20045;-82
2021/05/28 09:43:03;;;;;;;3.10;2.90;;;14.00;65.30;;;;;;5065388;28;20065;-81
2021/05/28 09:45:32;;;;;;;3.90;2.72;;;14.00;65.20;;;;;;5068093;28;20408;-81
2021/05/28 09:48:23;;;;;;;2.25;1.95;;;14.20;66.20;;;;;;5065386;28;20036;-81
2021/05/28 09:51:04;;;;;;;13.07;2.80;;;14.30;64.40;;;;;;5066095;28;20082;-80
2021/05/28 09:53:40;;;;;;;3.22;2.92;;;14.60;64.90;;;;;;5068436;28;20137;-81
2021/05/28 09:56:34;;;;;;;2.45;2.25;;;15.20;63.60;;;;;;5067676;28;20374;-81
2021/05/28 09:59:06;;;;;;;1.98;1.88;;;15.40;58.80;;;;;;5066724;28;20588;-80
2021/05/28 10:01:33;;;;;;;2.60;2.40;;;15.50;58.20;;;;;;5062957;28;20376;-80
2021/05/28 10:04:07;;;;;;;2.42;2.22;;;15.80;57.00;;;;;;5066061;28;20072;-80
2021/05/28 10:06:37;;;;;;;1.55;1.45;;;16.20;57.90;;;;;;5062191;28;20024;-80
2021/05/28 10:09:09;;;;;;;2.13;1.92;;;16.30;55.20;;;;;;5068514;28;20044;-81
2021/05/28 10:11:37;;;;;;;2.00;1.90;;;16.10;55.10;;;;;;5065070;28;20510;-81
2021/05/28 10:14:04;;;;;;;1.92;1.77;;;16.10;55.60;;;;;;5063223;28;20452;-81
2021/05/28 10:16:31;;;;;;;2.03;1.92;;;16.40;55.70;;;;;;5067866;28;20063;-80
2021/05/28 10:18:58;;;;;;;1.85;1.75;;;16.50;54.40;;;;;;5067596;28;20502;-81
2021/05/28 10:21:24;;;;;;;2.05;1.90;;;17.00;54.70;;;;;;5066571;28;20017;-80
2021/05/28 10:23:51;;;;;;;3.05;2.20;;;17.20;53.60;;;;;;5067629;28;20056;-82
2021/05/28 10:26:25;;;;;;;3.90;1.70;;;17.30;53.10;;;;;;5066093;28;20039;-81
2021/05/28 10:28:51;;;;;;;2.40;1.90;;;17.20;52.90;;;;;;5066883;28;20486;-81
2021/05/28 10:31:17;;;;;;;2.20;2.10;;;17.20;54.20;;;;;;5064564;28;20071;-80
2021/05/28 10:33:49;;;;;;;1.63;1.52;;;17.10;52.50;;;;;;5066646;28;20997;-80
2021/05/28 10:36:42;;;;;;;1.45;1.35;;;17.20;51.00;;;;;;5066450;28;20052;-81
2021/05/28 10:39:10;;;;;;;1.92;1.83;;;17.40;49.00;;;;;;5064609;28;20025;-80
2021/05/28 10:41:41;;;;;;;1.80;1.70;;;17.60;49.20;;;;;;5065656;28;20027;-81
2021/05/28 10:44:10;;;;;;;1.80;1.40;;;17.50;50.90;;;;;;5067350;28;20032;-80
2021/05/28 10:46:36;;;;;;;1.63;1.55;;;17.40;51.80;;;;;;5070375;28;20271;-80
2021/05/28 10:49:08;;;;;;;1.70;1.60;;;17.40;50.90;;;;;;5065135;28;20042;-79
2021/05/28 10:51:33;;;;;;;2.60;1.83;;;16.90;51.30;;;;;;5067042;28;20031;-81
2021/05/28 10:53:59;;;;;;;2.85;1.90;;;16.40;52.20;;;;;;5067153;28;20040;-80
2021/05/28 10:56:28;;;;;;;3.63;2.50;;;16.00;55.50;;;;;;5068658;28;20453;-80
2021/05/28 10:58:55;;;;;;;3.10;2.00;;;14.80;61.70;;;;;;5068526;28;20020;-79
2021/05/28 11:01:33;;;;;;;2.22;2.13;;;14.20;66.80;;;;;;5070018;28;20025;-79
2021/05/28 11:04:07;;;;;;;2.03;1.92;;;13.80;70.30;;;;;;5069702;28;20025;-79
2021/05/28 11:06:54;;;;;;;2.22;2.13;;;13.40;72.00;;;;;;5069341;28;20027;-79
2021/05/28 11:09:45;;;;;;;2.75;1.70;;;13.30;72.00;;;;;;5067886;28;20127;-79
2021/05/28 11:12:15;;;;;;;1.70;1.60;;;13.30;70.20;;;;;;5068224;28;20024;-79
2021/05/28 11:15:07;;;;;;;3.17;1.80;;;13.20;69.80;;;;;;5070916;28;20029;-79
2021/05/28 11:17:59;;;;;;;1.85;1.75;;;13.30;69.90;;;;;;5069561;28;20048;-79
2021/05/28 11:20:39;;;;;;;1.85;1.67;;;13.40;71.00;;;;;;5067285;28;20486;-80
2021/05/28 11:23:16;;;;;;;1.70;1.63;;;13.40;70.70;;;;;;5067771;28;20416;-79
2021/05/28 11:25:51;;;;;;;2.13;2.03;;;13.60;69.80;;;;;;5071701;28;20043;-79
2021/05/28 11:28:17;;;;;;;1.98;1.70;;;13.90;69.30;;;;;;5070057;28;20095;-79
2021/05/28 11:31:01;;;;;;;2.60;1.95;;;14.20;65.90;;;;;;5072025;28;20027;-79
2021/05/28 11:33:33;;;;;;;2.17;2.08;;;14.50;64.80;;;;;;5068813;28;20020;-79
2021/05/28 11:36:00;;;;;;;2.30;2.20;;;14.80;64.80;;;;;;5069180;28;20133;-81
2021/05/28 11:38:33;;;;;;;2.33;2.13;;;15.20;65.80;;;;;;5070473;28;20044;-81
2021/05/28 11:40:59;;;;;;;2.20;2.10;;;15.40;62.50;;;;;;5069955;28;20028;-82
2021/05/28 11:43:25;;;;;;;2.58;2.38;;;15.70;60.10;;;;;;5071048;28;20021;-82
2021/05/28 11:45:53;;;;;;;2.38;2.20;;;16.30;59.90;;;;;;5071971;28;20074;-81
2021/05/28 11:48:21;;;;;;;2.70;2.30;;;16.80;57.00;;;;;;5069479;28;20040;-81
2021/05/28 11:50:49;;;;;;;3.55;2.72;;;17.30;56.40;;;;;;5068430;28;20035;-80
2021/05/28 11:53:15;;;;;;;2.25;2.13;;;17.30;55.50;;;;;;5070459;28;20071;-81
2021/05/28 11:55:50;;;;;;;2.42;2.20;;;17.00;52.40;;;;;;5068991;28;20054;-82
2021/05/28 11:58:17;;;;;;;3.65;2.65;;;16.90;55.00;;;;;;5070371;28;20024;-83
2021/05/28 12:00:44;;;;;;;4.85;2.30;;;16.70;54.80;;;;;;5068588;28;20031;-82
2021/05/28 12:03:10;;;;;;;2.75;2.55;;;16.50;55.20;;;;;;5065879;28;20040;-82
2021/05/28 12:05:41;;;;;;;2.67;2.50;;;16.40;56.10;;;;;;5065211;28;20044;-83
2021/05/28 12:08:29;;;;;;;3.95;2.70;;;16.40;56.40;;;;;;5069055;28;20028;-82
2021/05/28 12:10:56;;;;;;;3.08;2.63;;;16.60;58.00;;;;;;5068519;28;20462;-83
2021/05/28 12:13:26;;;;;;;3.65;3.20;;;16.70;56.10;;;;;;5068294;28;20394;-83
2021/05/28 12:15:58;;;;;;;4.95;3.03;;;16.70;56.40;;;;;;5069948;28;20478;-83
2021/05/28 12:18:30;;;;;;;4.30;3.35;;;16.70;55.70;;;;;;5068098;28;20033;-78
2021/05/28 12:21:02;;;;;;;3.55;3.25;;;16.50;57.10;;;;;;5067070;28;20033;-76
2021/05/28 12:23:33;;;;;;;3.35;2.88;;;16.50;56.70;;;;;;5067932;28;20036;-75
2021/05/28 12:26:00;;;;;;;3.65;2.63;;;16.60;56.50;;;;;;5062513;28;20379;-76
2021/05/28 12:28:31;;;;;;;3.97;2.83;;;16.70;56.40;;;;;;5067396;28;20041;-77
2021/05/28 12:31:19;;;;;;;3.47;3.03;;;16.80;56.40;;;;;;5076869;28;20469;-82
2021/05/28 12:33:54;;;;;;;3.60;2.95;;;16.60;55.60;;;;;;5065897;28;20579;-81
2021/05/28 12:36:27;;;;;;;3.85;3.05;;;16.40;55.70;;;;;;5067979;28;20116;-75
2021/05/28 12:38:54;;;;;;;3.40;3.10;;;16.40;55.80;;;;;;5070114;28;20048;-76
2021/05/28 12:41:22;;;;;;;3.83;2.80;;;16.40;55.80;;;;;;5068226;28;20028;-76
2021/05/28 12:43:52;;;;;;;3.35;3.05;;;16.50;57.00;;;;;;5066261;28;20727;-75
2021/05/28 12:46:22;;;;;;;3.03;2.42;;;16.60;56.50;;;;;;5066500;28;20040;-76
2021/05/28 12:49:04;;;;;;;3.65;2.65;;;16.70;55.90;;;;;;5067110;28;20029;-77
2021/05/28 12:51:38;;;;;;;5.32;2.53;;;16.60;55.70;;;;;;5065633;28;20219;-77